Main page
METAR-TAF:

METAR-TAF

Airports :

Djibouti, Djibouti

Djibouti–Ambouli International Airport

latitude: 11-33N, longitude: 043-10E, elevation: 49 m

Current weather observation

The report was made 16 hours and 20 minutes ago, at 13:00 UTC
Wind 13 kt from the East
Temperature 30°C
Humidity 75%
Pressure 1012 hPa
Scattered clouds at a height of 2300 ft

METAR: HDAM 281300Z 09013KT 9/9 SCT023 30/25 Q1012

Time: 08:20 (05:20 UTC)

Forecast

Forecast valid from 29 at 00 UTC to 29 at 24 UTC
Wind kt from the North
Scattered clouds at a height of 2000 ft
Becoming
from 29 at 06 UTC to 29 at 12 UTC
Wind 10 kt from the East
Scattered clouds at a height of 2000 ft
Scattered clouds at a height of 3000 ft
rain
Becoming
from 29 at 15 UTC to 29 at 18 UTC
Wind 3 kt from variable directions
Scattered clouds at a height of 2000 ft

TAF: HDAM 2900/2924 00000KT 9/9 SCT020 BECMG 2906/2912 10010KT RA SCT020 SCT030 BECMG 2915/2918 VRB03KT SCT020

Weather observations and forecasts of more than 4000 airports (METAR and TAF reports).

The available stations are represented by yellow and red dots on the map.

Hover mouse over dot to see the name of the station.

Then click to see weather observations and forecasts.

To change the map : click on the green buttons with a black cross to zoom in, on the green button with a dash to zoom out, or on the green arrows for adjacent maps.


METAR-TAF: